Time;durP1;ratioP1;P1;durP2;ratioP2;P2;SDS_P1;SDS_P2;PMS_P1;PMS_P2;Temp;Humidity;BMP_temperature;BMP_pressure;BME280_temperature;BME280_humidity;BME280_pressure;Samples;Min_cycle;Max_cycle;Signal;HPM_P1;HPM_P2
2022/01/30 00:01:45;;;;;;;17.88;3.85;;;7.30;65.00;;;;;;4683878;30;20609;-78
2022/01/30 00:04:11;;;;;;;21.27;5.22;;;7.20;65.10;;;;;;4669018;30;20045;-78
2022/01/30 00:06:37;;;;;;;19.25;4.28;;;7.20;65.30;;;;;;4668946;30;20046;-78
2022/01/30 00:09:03;;;;;;;17.52;3.90;;;7.20;65.30;;;;;;4684171;30;20380;-78
2022/01/30 00:11:33;;;;;;;20.70;3.83;;;7.20;65.40;;;;;;4667798;30;20091;-78
2022/01/30 00:14:01;;;;;;;19.02;3.67;;;7.10;65.70;;;;;;4669441;30;20060;-78
2022/01/30 00:16:31;;;;;;;18.55;3.80;;;7.20;66.50;;;;;;4683401;30;20069;-78
2022/01/30 00:19:06;;;;;;;21.15;3.97;;;7.20;66.10;;;;;;4668291;30;20061;-78
2022/01/30 00:21:43;;;;;;;17.20;3.15;;;7.10;66.10;;;;;;4683204;30;20050;-77
2022/01/30 00:24:18;;;;;;;25.52;4.18;;;7.10;66.20;;;;;;4666338;30;20061;-78
2022/01/30 00:26:46;;;;;;;24.15;4.35;;;7.10;66.20;;;;;;4664772;30;20042;-78
2022/01/30 00:29:12;;;;;;;25.08;4.93;;;7.10;66.20;;;;;;4683765;30;20050;-77
2022/01/30 00:31:38;;;;;;;25.35;4.55;;;7.00;66.00;;;;;;4666711;30;20066;-77
2022/01/30 00:34:04;;;;;;;20.20;3.97;;;7.20;66.30;;;;;;4683387;30;20080;-78
2022/01/30 00:36:31;;;;;;;24.92;4.32;;;7.00;66.80;;;;;;4683449;30;20089;-78
2022/01/30 00:38:58;;;;;;;19.17;4.28;;;7.00;66.60;;;;;;4668098;30;20064;-78
2022/01/30 00:41:24;;;;;;;20.65;5.43;;;6.90;66.70;;;;;;4668064;30;20058;-77
2022/01/30 00:43:49;;;;;;;21.45;4.70;;;7.00;66.70;;;;;;4674227;30;20113;-77
2022/01/30 00:46:15;;;;;;;21.27;4.60;;;6.90;66.70;;;;;;4666881;30;20092;-78
2022/01/30 00:48:41;;;;;;;24.08;4.60;;;6.90;66.60;;;;;;4683410;30;20061;-78
2022/01/30 00:51:07;;;;;;;24.45;4.00;;;6.90;66.60;;;;;;4683891;30;20064;-78
2022/01/30 00:53:32;;;;;;;20.77;4.57;;;6.90;66.60;;;;;;4671418;30;20062;-77
2022/01/30 00:55:58;;;;;;;19.60;4.70;;;6.90;66.70;;;;;;4683747;30;20092;-78
2022/01/30 00:58:24;;;;;;;16.15;3.47;;;6.90;66.90;;;;;;4683295;30;20510;-77
2022/01/30 01:00:50;;;;;;;23.27;4.35;;;6.90;66.90;;;;;;4683236;30;20426;-78
2022/01/30 01:03:17;;;;;;;19.77;3.20;;;6.90;66.90;;;;;;4683313;30;20057;-77
2022/01/30 01:05:43;;;;;;;17.08;3.60;;;6.90;66.90;;;;;;4681760;30;20042;-78
2022/01/30 01:08:14;;;;;;;18.95;4.25;;;6.90;66.90;;;;;;4682469;30;20046;-78
2022/01/30 01:10:51;;;;;;;14.60;3.60;;;6.90;66.80;;;;;;4682526;30;20046;-78
2022/01/30 01:24:11;;;;;;;13.55;2.75;;;6.80;65.30;;;;;;4630310;31;20059;-78
2022/01/30 01:26:38;;;;;;;14.07;2.58;;;6.80;64.60;;;;;;4615480;31;20059;-78
2022/01/30 01:29:06;;;;;;;16.15;3.15;;;6.80;64.60;;;;;;4616098;31;20102;-78
2022/01/30 01:31:31;;;;;;;11.13;2.45;;;6.80;64.70;;;;;;4614587;31;20059;-77
2022/01/30 01:36:29;;;;;;;10.43;2.72;;;6.80;64.60;;;;;;4615645;30;20177;-78
2022/01/30 01:38:55;;;;;;;13.85;2.67;;;6.70;64.60;;;;;;4616199;31;20126;-78
2022/01/30 01:41:22;;;;;;;14.60;2.65;;;6.70;64.80;;;;;;4629842;31;20603;-78
2022/01/30 01:43:49;;;;;;;15.13;3.42;;;6.70;64.90;;;;;;4633279;30;20075;-78
2022/01/30 01:46:21;;;;;;;16.60;3.80;;;6.60;65.20;;;;;;4616257;31;20171;-78
2022/01/30 01:48:50;;;;;;;17.20;3.00;;;6.60;65.50;;;;;;4629544;30;20067;-78
2022/01/30 01:51:19;;;;;;;14.88;3.17;;;6.60;65.80;;;;;;4603174;31;20385;-78
2022/01/30 01:53:47;;;;;;;15.70;2.92;;;6.60;66.20;;;;;;4631019;30;20063;-78
2022/01/30 01:56:15;;;;;;;18.45;3.95;;;6.60;66.50;;;;;;4625336;31;20219;-78
2022/01/30 01:58:41;;;;;;;15.43;4.22;;;6.50;66.60;;;;;;4644823;30;20393;-78
2022/01/30 02:01:07;;;;;;;19.30;3.95;;;6.50;66.70;;;;;;4671326;30;20054;-78
2022/01/30 02:03:37;;;;;;;14.13;3.60;;;6.50;66.90;;;;;;4670322;30;20517;-78
2022/01/30 02:06:05;;;;;;;17.92;3.22;;;6.50;67.00;;;;;;4685362;30;20074;-78
2022/01/30 02:26:50;;;;;;;16.20;4.20;;;6.40;67.50;;;;;;4685383;30;20069;-78
2022/01/30 02:29:18;;;;;;;24.42;4.53;;;6.50;67.50;;;;;;4670099;30;20216;-78
2022/01/30 02:31:43;;;;;;;21.63;4.93;;;6.50;67.40;;;;;;4670129;30;20054;-78
2022/01/30 02:34:09;;;;;;;22.95;4.40;;;6.50;67.60;;;;;;4685656;30;20526;-78
2022/01/30 02:36:47;;;;;;;18.38;3.50;;;6.90;67.70;;;;;;4685499;30;20046;-78
2022/01/30 02:39:13;;;;;;;18.52;3.83;;;6.50;67.40;;;;;;4685481;30;20057;-78
2022/01/30 02:41:39;;;;;;;18.00;3.70;;;6.50;67.40;;;;;;4684977;30;20129;-78
2022/01/30 02:44:14;;;;;;;18.75;4.57;;;6.80;67.40;;;;;;4685194;30;20053;-78
2022/01/30 02:46:44;;;;;;;16.63;2.85;;;6.50;67.20;;;;;;4685124;30;20491;-78
2022/01/30 02:49:28;;;;;;;18.38;3.38;;;6.50;67.00;;;;;;4685093;30;20054;-78
2022/01/30 02:52:00;;;;;;;14.68;2.85;;;6.50;67.00;;;;;;4677062;30;20134;-78
2022/01/30 02:54:28;;;;;;;14.27;2.65;;;6.90;67.00;;;;;;4685163;30;20058;-78
2022/01/30 02:56:54;;;;;;;13.95;3.08;;;6.50;66.90;;;;;;4684086;30;20520;-78
2022/01/30 02:59:21;;;;;;;9.32;2.60;;;6.50;66.90;;;;;;4669852;30;20084;-78
2022/01/30 03:01:46;;;;;;;12.02;3.30;;;6.90;67.10;;;;;;4669954;30;20514;-78
2022/01/30 03:04:12;;;;;;;14.05;3.40;;;6.50;66.90;;;;;;4684973;30;20049;-78
2022/01/30 03:06:38;;;;;;;19.52;4.43;;;6.50;66.90;;;;;;4669224;30;20057;-78
2022/01/30 03:09:06;;;;;;;17.17;3.55;;;6.50;67.10;;;;;;4684085;30;20053;-77
2022/01/30 03:11:32;;;;;;;17.23;3.83;;;6.60;67.30;;;;;;4669652;30;20062;-78
2022/01/30 03:13:58;;;;;;;20.25;3.95;;;6.50;67.50;;;;;;4684191;30;20084;-78
2022/01/30 03:16:23;;;;;;;22.45;4.80;;;6.50;67.60;;;;;;4684988;30;20373;-78
2022/01/30 03:18:50;;;;;;;21.25;3.33;;;6.50;67.80;;;;;;4669222;30;20057;-78
2022/01/30 03:21:16;;;;;;;22.08;4.32;;;6.50;68.00;;;;;;4684429;30;20053;-78
2022/01/30 03:23:42;;;;;;;24.48;5.18;;;6.50;68.60;;;;;;4686373;30;20049;-78
2022/01/30 03:26:09;;;;;;;20.48;4.10;;;6.50;68.40;;;;;;4685232;30;20054;-78
2022/01/30 03:28:35;;;;;;;27.90;5.32;;;6.50;68.50;;;;;;4668872;30;20105;-78
2022/01/30 03:31:04;;;;;;;20.27;4.70;;;6.50;68.90;;;;;;4669712;30;20443;-78
2022/01/30 03:33:31;;;;;;;15.75;3.80;;;6.70;68.70;;;;;;4684694;30;20046;-78
2022/01/30 03:35:57;;;;;;;22.13;4.40;;;6.50;68.70;;;;;;4684326;30;20058;-79
2022/01/30 03:38:24;;;;;;;23.02;4.78;;;6.50;68.80;;;;;;4684909;30;20053;-78
2022/01/30 03:40:50;;;;;;;22.63;4.20;;;6.50;68.70;;;;;;4684264;30;20089;-78
2022/01/30 03:43:16;;;;;;;25.27;5.30;;;6.50;68.70;;;;;;4668497;30;20054;-78
2022/01/30 03:45:43;;;;;;;21.17;4.68;;;6.50;68.80;;;;;;4668553;30;20038;-78
2022/01/30 03:48:09;;;;;;;26.55;4.70;;;6.50;68.70;;;;;;4684399;30;20054;-78
2022/01/30 03:50:35;;;;;;;30.20;5.43;;;6.50;68.80;;;;;;4668551;30;20053;-78
2022/01/30 03:53:01;;;;;;;27.20;4.47;;;6.40;68.70;;;;;;4669149;30;20054;-78
2022/01/30 03:55:26;;;;;;;26.92;4.55;;;6.40;68.70;;;;;;4668115;30;20423;-78
2022/01/30 03:57:52;;;;;;;22.65;4.47;;;6.40;68.80;;;;;;4684456;30;20048;-77
2022/01/30 04:00:19;;;;;;;21.13;4.90;;;6.40;68.90;;;;;;4668228;30;20050;-78
2022/01/30 04:02:45;;;;;;;25.20;4.75;;;6.40;69.00;;;;;;4684537;30;20054;-78
2022/01/30 04:05:11;;;;;;;28.15;5.82;;;6.40;69.10;;;;;;4683675;30;20046;-78
2022/01/30 04:07:37;;;;;;;27.63;5.43;;;6.40;69.20;;;;;;4683572;30;20057;-78
2022/01/30 04:10:05;;;;;;;21.08;4.28;;;6.40;69.30;;;;;;4668424;30;20062;-78
2022/01/30 04:12:31;;;;;;;31.35;5.35;;;6.40;69.50;;;;;;4683294;30;20054;-78
2022/01/30 04:14:57;;;;;;;27.88;5.15;;;6.40;69.60;;;;;;4668242;30;20144;-77
2022/01/30 04:17:22;;;;;;;29.90;5.90;;;6.30;69.50;;;;;;4686621;30;20077;-77
2022/01/30 04:19:49;;;;;;;25.73;6.00;;;6.30;69.60;;;;;;4684691;30;20089;-78
2022/01/30 04:22:15;;;;;;;29.40;5.85;;;6.40;69.70;;;;;;4683901;30;20054;-77
2022/01/30 04:24:41;;;;;;;30.27;5.50;;;6.40;69.60;;;;;;4692941;30;20052;-77
2022/01/30 04:27:07;;;;;;;25.85;5.18;;;6.40;69.70;;;;;;4691549;30;20141;-78
2022/01/30 04:29:32;;;;;;;29.52;6.07;;;6.30;69.70;;;;;;4673351;30;20494;-78
2022/01/30 04:31:58;;;;;;;34.47;6.53;;;6.40;69.80;;;;;;4683581;30;20058;-78
2022/01/30 04:34:25;;;;;;;28.45;6.28;;;6.30;69.70;;;;;;4683513;30;20050;-78
2022/01/30 04:37:01;;;;;;;29.25;6.32;;;6.30;69.70;;;;;;4683373;30;20110;-78
2022/01/30 04:52:08;;;;;;;31.20;6.88;;;6.40;69.40;;;;;;4682911;30;20089;-78
2022/01/30 04:53:35;;;;;;;34.17;6.68;;;6.30;68.40;;;;;;4681186;30;20131;-78
2022/01/30 05:04:29;;;;;;;34.72;7.10;;;6.30;67.60;;;;;;4646951;30;20523;-78
2022/01/30 05:07:27;;;;;;;31.77;5.90;;;6.30;67.20;;;;;;4632570;30;20059;-78
2022/01/30 05:09:42;;;;;;;38.00;6.30;;;6.30;66.90;;;;;;4646892;30;20106;-78
2022/01/30 05:12:09;;;;;;;33.35;7.03;;;6.20;66.30;;;;;;4632155;30;20077;-78
2022/01/30 05:14:36;;;;;;;26.25;5.75;;;6.30;66.10;;;;;;4646403;30;20062;-78
2022/01/30 05:17:04;;;;;;;29.23;5.72;;;6.30;65.90;;;;;;4632584;30;20043;-78
2022/01/30 05:19:31;;;;;;;27.17;5.57;;;6.30;65.30;;;;;;4646159;30;20054;-78
2022/01/30 05:21:57;;;;;;;31.52;6.53;;;6.30;64.70;;;;;;4646270;30;20393;-78
2022/01/30 05:24:22;;;;;;;28.95;6.57;;;6.30;64.50;;;;;;4647646;30;20058;-78
2022/01/30 05:26:49;;;;;;;29.30;7.30;;;6.20;64.20;;;;;;4646306;30;20101;-78
2022/01/30 05:29:15;;;;;;;29.30;5.85;;;6.20;64.20;;;;;;4646505;30;20054;-79
2022/01/30 05:31:42;;;;;;;32.22;6.15;;;6.30;64.10;;;;;;4647146;30;20074;-79
2022/01/30 05:34:08;;;;;;;27.30;5.25;;;6.20;64.10;;;;;;4647238;30;20512;-78
2022/01/30 05:36:38;;;;;;;29.23;5.30;;;6.40;63.80;;;;;;4646510;30;20043;-79
2022/01/30 05:39:04;;;;;;;32.20;6.68;;;6.20;63.60;;;;;;4646640;30;20401;-78
2022/01/30 05:41:32;;;;;;;31.17;6.25;;;6.30;63.70;;;;;;4678107;30;20057;-78
2022/01/30 05:44:09;;;;;;;27.02;6.22;;;6.30;63.80;;;;;;4682504;30;20057;-79
2022/01/30 05:46:46;;;;;;;31.65;5.88;;;6.30;63.80;;;;;;4682557;30;20492;-79
2022/01/30 05:49:14;;;;;;;30.65;5.88;;;6.20;63.70;;;;;;4681571;30;20054;-79
2022/01/30 05:51:39;;;;;;;41.90;6.38;;;6.20;64.00;;;;;;4682414;30;20042;-78
2022/01/30 05:54:05;;;;;;;27.67;5.78;;;6.20;63.80;;;;;;4682683;30;20522;-78
2022/01/30 05:56:31;;;;;;;28.52;5.60;;;6.20;63.80;;;;;;4666974;30;20050;-78
2022/01/30 05:58:57;;;;;;;31.17;5.80;;;6.20;63.90;;;;;;4682333;30;20133;-79
2022/01/30 06:01:22;;;;;;;30.80;5.95;;;6.20;64.00;;;;;;4681847;30;20586;-79
2022/01/30 06:03:48;;;;;;;33.60;7.03;;;6.20;63.90;;;;;;4682612;30;20125;-78
2022/01/30 06:06:14;;;;;;;37.35;6.72;;;6.20;63.80;;;;;;4667573;30;20550;-79
2022/01/30 06:11:09;;;;;;;27.58;6.45;;;6.50;63.70;;;;;;4666692;30;20066;-79
2022/01/30 06:13:35;;;;;;;32.38;6.60;;;6.20;63.50;;;;;;4667082;30;20070;-79
2022/01/30 06:16:01;;;;;;;35.67;6.57;;;6.50;63.60;;;;;;4682195;30;20376;-79
2022/01/30 06:18:27;;;;;;;27.55;5.68;;;6.10;63.40;;;;;;4672708;30;20061;-79
2022/01/30 06:20:53;;;;;;;40.33;7.75;;;6.10;63.40;;;;;;4688251;30;20128;-79
2022/01/30 06:23:22;;;;;;;38.08;6.38;;;6.10;63.40;;;;;;4682653;30;20066;-79
2022/01/30 06:25:48;;;;;;;29.20;6.28;;;6.10;63.60;;;;;;4682370;30;20050;-79
2022/01/30 06:28:15;;;;;;;35.47;6.82;;;6.10;63.60;;;;;;4682407;30;20069;-78
2022/01/30 06:30:41;;;;;;;34.28;7.10;;;6.10;63.60;;;;;;4668454;30;20054;-79
2022/01/30 06:33:06;;;;;;;31.95;7.20;;;6.10;63.60;;;;;;4685896;30;20054;-79
2022/01/30 06:35:32;;;;;;;36.72;7.13;;;6.10;63.90;;;;;;4685410;30;20077;-79
2022/01/30 06:37:58;;;;;;;36.85;7.90;;;6.10;63.50;;;;;;4670408;30;20124;-79
2022/01/30 06:40:23;;;;;;;35.38;7.28;;;6.10;64.00;;;;;;4685764;30;20402;-79
2022/01/30 06:42:49;;;;;;;34.00;6.90;;;6.50;63.80;;;;;;4669514;30;20054;-79
2022/01/30 06:45:18;;;;;;;34.05;6.93;;;6.10;63.70;;;;;;4685627;30;20576;-79
2022/01/30 06:47:45;;;;;;;37.70;8.00;;;6.10;63.50;;;;;;4685466;30;20042;-79
2022/01/30 06:50:11;;;;;;;33.35;6.97;;;6.10;63.80;;;;;;4668893;30;20058;-79
2022/01/30 06:52:38;;;;;;;33.10;6.57;;;6.10;63.90;;;;;;4684602;30;20058;-79
2022/01/30 06:55:05;;;;;;;32.65;5.80;;;6.10;64.00;;;;;;4685645;30;20053;-79
2022/01/30 06:57:31;;;;;;;28.00;6.15;;;6.10;64.00;;;;;;4685017;30;20050;-79
2022/01/30 06:59:57;;;;;;;36.65;7.25;;;6.10;64.10;;;;;;4685462;30;20105;-79
2022/01/30 07:02:22;;;;;;;29.00;6.47;;;6.10;64.20;;;;;;4684923;30;20488;-78
2022/01/30 07:04:48;;;;;;;38.45;6.88;;;6.10;64.20;;;;;;4685268;30;20128;-79
2022/01/30 07:07:14;;;;;;;36.75;7.22;;;6.40;64.30;;;;;;4669471;30;20053;-79
2022/01/30 07:09:40;;;;;;;30.65;6.28;;;6.10;63.90;;;;;;4668333;30;20069;-79
2022/01/30 07:12:06;;;;;;;36.88;7.15;;;6.20;63.70;;;;;;4669313;30;20427;-79
2022/01/30 07:14:32;;;;;;;21.38;5.93;;;6.10;63.50;;;;;;4684715;30;20136;-78
2022/01/30 07:16:58;;;;;;;31.17;6.80;;;6.20;63.40;;;;;;4685115;30;20460;-79
2022/01/30 07:19:24;;;;;;;28.60;6.60;;;6.20;63.40;;;;;;4684497;30;20086;-79
2022/01/30 07:21:50;;;;;;;39.28;7.75;;;6.20;63.40;;;;;;4690722;30;20092;-79
2022/01/30 07:24:16;;;;;;;34.58;6.85;;;6.40;63.30;;;;;;4690868;30;20081;-79
2022/01/30 07:26:41;;;;;;;35.35;6.03;;;6.30;63.30;;;;;;4685071;30;20107;-79
2022/01/30 07:29:07;;;;;;;35.95;7.88;;;6.30;63.10;;;;;;4668789;30;20054;-79
2022/01/30 07:31:34;;;;;;;32.45;7.00;;;6.30;63.20;;;;;;4669331;30;20415;-79
2022/01/30 07:34:00;;;;;;;24.13;6.32;;;6.30;63.20;;;;;;4669319;30;20050;-79
2022/01/30 07:36:27;;;;;;;32.90;6.75;;;6.30;63.10;;;;;;4684353;30;20056;-79
2022/01/30 07:38:54;;;;;;;35.33;7.05;;;6.30;63.30;;;;;;4684247;30;20097;-80
2022/01/30 07:41:20;;;;;;;33.90;7.00;;;6.40;63.30;;;;;;4683385;30;20046;-79
2022/01/30 07:43:46;;;;;;;34.90;6.43;;;6.40;63.20;;;;;;4684386;30;20145;-79
2022/01/30 07:46:11;;;;;;;33.30;6.80;;;6.40;63.10;;;;;;4684563;30;20140;-79
2022/01/30 07:48:37;;;;;;;29.40;6.28;;;6.40;62.90;;;;;;4684469;30;20038;-79
2022/01/30 07:51:03;;;;;;;31.80;7.05;;;6.40;62.50;;;;;;4669032;30;20054;-79
2022/01/30 07:53:29;;;;;;;31.48;6.65;;;6.40;62.40;;;;;;4683895;30;20041;-79
2022/01/30 07:55:54;;;;;;;34.03;6.88;;;6.40;62.30;;;;;;4684179;30;20403;-79
2022/01/30 07:58:20;;;;;;;32.85;5.93;;;6.40;62.30;;;;;;4684248;30;20100;-80
2022/01/30 08:00:46;;;;;;;34.53;6.10;;;6.40;61.70;;;;;;4683971;30;20535;-79
2022/01/30 08:03:12;;;;;;;35.22;7.75;;;6.40;61.70;;;;;;4668681;30;20057;-80
2022/01/30 08:05:39;;;;;;;32.88;6.45;;;6.60;61.40;;;;;;4686077;30;20124;-79
2022/01/30 08:08:05;;;;;;;32.63;6.53;;;6.40;61.30;;;;;;4668175;30;20057;-79
2022/01/30 08:10:32;;;;;;;39.38;7.40;;;6.40;61.40;;;;;;4668202;30;20072;-79
2022/01/30 08:12:58;;;;;;;33.97;7.18;;;6.50;61.40;;;;;;4684981;30;20446;-79
2022/01/30 08:15:23;;;;;;;36.67;6.43;;;6.50;61.60;;;;;;4683872;30;20054;-79
2022/01/30 08:17:49;;;;;;;38.88;7.68;;;6.50;61.60;;;;;;4684027;30;20071;-80
2022/01/30 08:20:15;;;;;;;29.83;6.38;;;6.50;61.80;;;;;;4669326;30;20418;-79
2022/01/30 08:22:48;;;;;;;39.42;7.53;;;6.50;62.00;;;;;;4666955;30;20057;-79
2022/01/30 08:25:16;;;;;;;29.57;6.77;;;6.50;61.60;;;;;;4668269;30;20082;-79
2022/01/30 08:27:42;;;;;;;39.90;8.32;;;6.50;61.60;;;;;;4683922;30;20108;-79
2022/01/30 08:30:08;;;;;;;34.80;6.57;;;6.50;61.90;;;;;;4683474;30;20057;-80
2022/01/30 08:32:48;;;;;;;34.33;6.85;;;6.50;61.80;;;;;;4683991;30;20388;-78
2022/01/30 08:35:15;;;;;;;31.80;7.85;;;6.60;61.80;;;;;;4683867;30;20054;-78
2022/01/30 08:37:41;;;;;;;27.50;6.65;;;6.60;61.90;;;;;;4683601;30;20121;-78
2022/01/30 08:40:13;;;;;;;37.38;7.22;;;6.60;61.90;;;;;;4667957;30;20049;-78
2022/01/30 08:42:39;;;;;;;28.63;7.55;;;6.60;61.90;;;;;;4685797;30;20392;-79
2022/01/30 08:45:08;;;;;;;34.10;7.22;;;6.60;62.10;;;;;;4685777;30;20062;-78
2022/01/30 08:47:34;;;;;;;40.70;7.82;;;6.60;62.00;;;;;;4693362;30;20054;-78
2022/01/30 08:50:00;;;;;;;45.70;7.90;;;6.60;62.10;;;;;;4684797;30;20057;-78
2022/01/30 08:52:26;;;;;;;37.25;6.85;;;6.70;62.20;;;;;;4684776;30;20122;-78
2022/01/30 08:54:52;;;;;;;25.88;6.93;;;6.70;62.50;;;;;;4683343;30;20046;-78
2022/01/30 08:57:18;;;;;;;31.80;7.35;;;6.70;62.20;;;;;;4682688;30;20111;-78
2022/01/30 08:59:44;;;;;;;31.67;7.18;;;7.00;62.50;;;;;;4667208;30;20050;-77
2022/01/30 09:02:10;;;;;;;34.85;8.45;;;6.70;62.40;;;;;;4671896;30;20057;-78
2022/01/30 09:04:36;;;;;;;35.85;6.68;;;6.70;62.10;;;;;;4666648;30;20113;-79
2022/01/30 09:07:02;;;;;;;36.67;7.43;;;6.80;61.70;;;;;;4667500;30;20046;-78
2022/01/30 09:09:29;;;;;;;25.65;6.20;;;6.90;61.60;;;;;;4680042;30;20049;-80
2022/01/30 09:11:58;;;;;;;32.05;6.53;;;7.00;61.40;;;;;;4667820;30;20068;-77
2022/01/30 09:14:25;;;;;;;25.75;6.10;;;7.20;60.60;;;;;;4682988;30;20180;-79
2022/01/30 09:16:51;;;;;;;31.23;6.72;;;7.10;60.00;;;;;;4682944;30;20411;-77
2022/01/30 09:19:16;;;;;;;27.70;6.30;;;7.10;59.60;;;;;;4671212;30;20055;-78
2022/01/30 09:21:42;;;;;;;27.48;5.82;;;7.20;58.60;;;;;;4699347;30;20049;-78
2022/01/30 09:24:07;;;;;;;29.60;6.22;;;7.20;58.20;;;;;;4683764;30;20426;-79
2022/01/30 09:26:33;;;;;;;31.35;6.70;;;7.20;58.00;;;;;;4682691;30;20050;-79
2022/01/30 09:28:59;;;;;;;24.50;6.03;;;7.20;58.20;;;;;;4667073;30;20081;-78
2022/01/30 09:31:24;;;;;;;25.42;6.05;;;7.20;58.20;;;;;;4666580;30;20049;-79
2022/01/30 09:33:51;;;;;;;29.65;6.32;;;7.30;58.00;;;;;;4682271;30;20064;-78
2022/01/30 09:36:16;;;;;;;26.60;6.38;;;7.40;57.80;;;;;;4682242;30;20092;-78
2022/01/30 09:38:42;;;;;;;28.75;6.20;;;7.40;57.60;;;;;;4666738;30;20133;-78
2022/01/30 09:41:11;;;;;;;30.25;6.05;;;7.50;58.00;;;;;;4681600;30;20085;-77
2022/01/30 09:43:37;;;;;;;25.08;5.93;;;7.50;58.00;;;;;;4667381;30;20094;-79
2022/01/30 09:46:03;;;;;;;30.05;6.22;;;7.60;57.70;;;;;;4681740;30;20487;-79
2022/01/30 09:48:34;;;;;;;34.83;6.65;;;7.60;57.80;;;;;;4685287;30;20104;-79
2022/01/30 09:51:03;;;;;;;33.03;6.72;;;7.70;57.60;;;;;;4680801;30;20058;-78
2022/01/30 09:53:28;;;;;;;27.63;6.35;;;7.80;57.80;;;;;;4682016;30;20399;-78
2022/01/30 09:55:54;;;;;;;27.55;6.68;;;8.00;58.00;;;;;;4683303;30;20053;-78
2022/01/30 09:58:20;;;;;;;33.42;7.35;;;8.10;58.10;;;;;;4689647;30;20121;-79
2022/01/30 10:00:46;;;;;;;30.00;6.40;;;8.00;57.70;;;;;;4681776;30;20141;-79
2022/01/30 10:03:11;;;;;;;30.23;6.90;;;7.90;57.40;;;;;;4667643;30;20062;-79
2022/01/30 10:05:38;;;;;;;29.33;7.82;;;8.00;57.60;;;;;;4668697;30;20057;-79
2022/01/30 10:08:05;;;;;;;30.75;6.43;;;8.00;57.40;;;;;;4670568;30;20062;-78
2022/01/30 10:10:31;;;;;;;38.95;7.40;;;8.10;57.40;;;;;;4684989;30;20138;-78
2022/01/30 10:13:03;;;;;;;26.83;5.80;;;8.10;57.50;;;;;;4683385;30;20493;-79
2022/01/30 10:15:29;;;;;;;29.80;7.03;;;8.20;57.60;;;;;;4685953;30;20058;-78
2022/01/30 10:17:55;;;;;;;24.88;6.43;;;8.20;57.60;;;;;;4685581;30;20376;-78
2022/01/30 10:20:25;;;;;;;27.88;6.30;;;8.20;57.50;;;;;;4685463;30;20163;-78
2022/01/30 10:23:03;;;;;;;33.72;7.53;;;8.30;57.60;;;;;;4697062;30;20137;-78
2022/01/30 10:25:35;;;;;;;39.72;7.25;;;8.30;57.70;;;;;;4685413;30;20503;-79
2022/01/30 10:28:13;;;;;;;33.08;9.05;;;8.30;58.00;;;;;;4668830;30;20534;-79
2022/01/30 10:30:50;;;;;;;36.33;8.27;;;8.30;57.90;;;;;;4685684;30;20060;-79
2022/01/30 10:33:18;;;;;;;31.52;6.60;;;8.40;58.10;;;;;;4685945;30;20418;-78
2022/01/30 10:35:47;;;;;;;42.65;8.25;;;8.40;58.30;;;;;;4685655;30;20065;-81
2022/01/30 10:38:30;;;;;;;32.20;6.90;;;8.40;58.30;;;;;;4669800;30;20058;-82
2022/01/30 10:40:56;;;;;;;30.80;7.25;;;8.40;58.20;;;;;;4672957;30;20085;-82
2022/01/30 10:43:22;;;;;;;35.60;8.65;;;8.30;58.50;;;;;;4669575;30;20088;-82
2022/01/30 10:45:48;;;;;;;37.70;7.90;;;8.30;58.30;;;;;;4684551;30;20080;-83
2022/01/30 10:48:20;;;;;;;30.65;7.55;;;8.30;58.30;;;;;;4684997;30;20148;-82
2022/01/30 10:50:48;;;;;;;32.03;6.95;;;8.20;58.00;;;;;;4685220;30;20062;-82
2022/01/30 10:53:24;;;;;;;31.00;6.50;;;8.20;58.10;;;;;;4670075;30;20078;-82
2022/01/30 10:55:50;;;;;;;40.58;8.18;;;8.30;58.20;;;;;;4669316;30;20057;-82
2022/01/30 10:58:25;;;;;;;28.17;7.68;;;8.30;57.90;;;;;;4668443;30;20145;-81
2022/01/30 11:00:53;;;;;;;36.13;5.97;;;8.30;57.60;;;;;;4685749;30;20050;-82
2022/01/30 11:03:39;;;;;;;29.60;6.65;;;8.20;57.40;;;;;;4669267;30;20061;-81
2022/01/30 11:06:09;;;;;;;35.53;6.90;;;8.30;56.70;;;;;;4655511;30;20050;-82
2022/01/30 11:08:38;;;;;;;36.15;7.40;;;8.30;56.70;;;;;;4669404;30;20053;-81
2022/01/30 11:11:20;;;;;;;35.67;6.90;;;8.30;57.00;;;;;;4669197;30;20066;-82
2022/01/30 11:19:19;;;;;;;30.27;6.50;;;8.30;55.90;;;;;;4636773;30;20051;-83
2022/01/30 11:21:53;;;;;;;24.50;6.10;;;8.40;56.20;;;;;;4638405;30;20071;-82
2022/01/30 11:24:23;;;;;;;31.50;7.22;;;8.40;56.10;;;;;;4622321;30;20082;-83
2022/01/30 11:26:48;;;;;;;26.35;6.75;;;8.40;56.10;;;;;;4612969;30;20419;-82
2022/01/30 11:29:16;;;;;;;26.98;5.55;;;8.40;56.20;;;;;;4638362;30;20055;-82
2022/01/30 11:31:42;;;;;;;28.48;5.95;;;8.50;55.70;;;;;;4632711;30;20080;-82
2022/01/30 11:34:08;;;;;;;26.52;6.00;;;8.50;55.40;;;;;;4646069;30;20094;-82
2022/01/30 11:36:38;;;;;;;33.67;7.82;;;8.40;55.20;;;;;;4623528;31;20573;-82
2022/01/30 11:39:05;;;;;;;30.38;6.32;;;8.50;55.10;;;;;;4631562;30;20051;-82
2022/01/30 11:41:34;;;;;;;32.20;6.97;;;8.40;55.10;;;;;;4623930;30;20090;-82
2022/01/30 11:44:23;;;;;;;30.58;6.43;;;8.50;55.00;;;;;;4642948;30;20129;-82
2022/01/30 11:46:52;;;;;;;28.15;5.53;;;8.50;54.70;;;;;;4612118;31;20067;-83
2022/01/30 11:49:18;;;;;;;30.60;7.10;;;8.40;55.10;;;;;;4636070;30;20509;-82
2022/01/30 11:51:50;;;;;;;31.95;5.82;;;8.50;55.00;;;;;;4633165;30;20058;-82
2022/01/30 11:54:53;;;;;;;28.13;5.07;;;8.40;54.50;;;;;;4652334;30;20074;-82
2022/01/30 11:57:22;;;;;;;29.00;6.32;;;8.40;54.50;;;;;;4611920;31;20048;-83
2022/01/30 11:59:49;;;;;;;25.23;5.30;;;8.40;55.00;;;;;;4614595;31;20052;-82
2022/01/30 12:02:25;;;;;;;25.90;5.97;;;8.40;55.20;;;;;;4599666;31;20063;-82
2022/01/30 12:05:05;;;;;;;25.52;5.85;;;8.40;55.10;;;;;;4618065;31;20225;-82
2022/01/30 12:07:33;;;;;;;24.38;6.68;;;8.40;55.00;;;;;;4600243;31;20066;-81
2022/01/30 12:10:29;;;;;;;22.88;4.82;;;8.40;54.80;;;;;;4598392;31;20106;-84
2022/01/30 12:13:03;;;;;;;30.35;6.13;;;8.40;54.50;;;;;;4615127;31;20453;-80
2022/01/30 12:15:46;;;;;;;34.10;6.75;;;8.30;54.70;;;;;;4615439;31;20055;-81
2022/01/30 12:18:17;;;;;;;26.98;5.40;;;8.30;54.30;;;;;;4614176;31;20071;-82
2022/01/30 12:21:11;;;;;;;31.35;5.97;;;8.30;54.40;;;;;;4600791;31;20068;-82
2022/01/30 12:23:41;;;;;;;27.25;5.80;;;8.30;54.50;;;;;;4611499;31;20464;-82
2022/01/30 12:26:14;;;;;;;28.40;6.28;;;8.20;54.70;;;;;;4609641;31;20051;-81
2022/01/30 12:28:54;;;;;;;24.13;6.13;;;8.20;55.00;;;;;;4598963;31;20055;-81
2022/01/30 12:31:22;;;;;;;26.05;5.57;;;8.20;55.20;;;;;;4635804;30;20069;-82
2022/01/30 12:33:48;;;;;;;25.08;5.38;;;8.20;55.60;;;;;;4667489;30;20145;-83
2022/01/30 12:36:17;;;;;;;25.38;6.40;;;8.10;55.70;;;;;;4683710;30;20137;-83
2022/01/30 12:38:43;;;;;;;29.55;5.40;;;8.10;55.80;;;;;;4683700;30;20053;-81
2022/01/30 12:41:16;;;;;;;31.33;7.30;;;8.20;56.00;;;;;;4683596;30;20410;-82
2022/01/30 12:43:42;;;;;;;32.28;6.03;;;8.10;55.70;;;;;;4667492;30;20088;-83
2022/01/30 12:46:09;;;;;;;25.63;5.55;;;8.10;55.90;;;;;;4681864;30;20085;-83
2022/01/30 12:48:36;;;;;;;26.35;5.93;;;8.10;56.10;;;;;;4667572;30;20054;-82
2022/01/30 12:51:07;;;;;;;33.13;6.18;;;8.20;56.40;;;;;;4688020;30;20092;-82
2022/01/30 12:53:35;;;;;;;25.60;6.03;;;8.20;57.00;;;;;;4682088;30;20046;-82
2022/01/30 12:56:01;;;;;;;25.70;5.93;;;8.20;56.70;;;;;;4664353;30;20069;-83
2022/01/30 12:58:34;;;;;;;32.40;6.47;;;8.30;56.60;;;;;;4679516;30;20066;-82
2022/01/30 13:01:08;;;;;;;28.50;6.80;;;8.30;56.30;;;;;;4665051;30;20088;-83
2022/01/30 13:03:34;;;;;;;32.72;6.95;;;8.20;56.50;;;;;;4679448;30;20054;-83
2022/01/30 13:06:00;;;;;;;35.63;7.18;;;8.40;56.30;;;;;;4665057;30;20046;-83
2022/01/30 13:08:46;;;;;;;34.90;7.15;;;8.30;56.50;;;;;;4663884;30;20546;-83
2022/01/30 13:11:23;;;;;;;28.98;6.93;;;8.40;56.10;;;;;;4678736;30;20128;-83
2022/01/30 13:13:55;;;;;;;25.98;5.80;;;8.40;56.60;;;;;;4664958;30;20069;-83
2022/01/30 13:16:22;;;;;;;25.05;5.97;;;8.40;56.70;;;;;;4691574;30;20062;-83
2022/01/30 13:18:48;;;;;;;29.92;5.63;;;8.40;56.00;;;;;;4689111;30;20062;-83
2022/01/30 13:21:13;;;;;;;33.17;6.30;;;8.40;55.90;;;;;;4698552;30;20081;-83
2022/01/30 13:23:45;;;;;;;23.50;5.57;;;8.40;55.50;;;;;;4665314;30;20130;-82
2022/01/30 13:26:11;;;;;;;23.40;5.47;;;8.40;55.20;;;;;;4663207;30;20144;-83
2022/01/30 13:28:37;;;;;;;31.38;6.15;;;8.40;54.90;;;;;;4663362;30;20125;-83
2022/01/30 13:31:13;;;;;;;25.33;5.82;;;8.40;54.70;;;;;;4663318;30;20061;-82
2022/01/30 13:33:38;;;;;;;26.40;6.45;;;8.40;54.70;;;;;;4678533;30;20563;-82
2022/01/30 13:36:04;;;;;;;26.05;6.35;;;8.40;55.20;;;;;;4664213;30;20077;-84
2022/01/30 13:38:32;;;;;;;26.27;5.78;;;8.40;55.40;;;;;;4683810;30;20045;-83
2022/01/30 13:41:06;;;;;;;25.52;5.75;;;8.40;55.70;;;;;;4679674;30;20054;-83
2022/01/30 13:43:35;;;;;;;24.63;6.13;;;8.50;55.60;;;;;;4684330;30;20137;-83
2022/01/30 13:48:45;;;;;;;31.17;5.57;;;8.50;55.70;;;;;;4671553;30;20065;-83
2022/01/30 13:51:11;;;;;;;32.42;6.40;;;8.40;55.60;;;;;;4667071;30;20054;-84
2022/01/30 13:53:37;;;;;;;29.05;6.85;;;8.40;56.00;;;;;;4662542;30;20069;-83
2022/01/30 13:56:11;;;;;;;34.78;6.57;;;8.40;56.10;;;;;;4683949;30;20054;-83